createdAt,value
2023-03-08T00:02:24.789Z,65.00
2023-03-08T00:04:55.458Z,65.20
2023-03-08T00:07:23.256Z,65.40
2023-03-08T00:09:50.394Z,65.90
2023-03-08T00:12:19.455Z,66.50
2023-03-08T00:14:46.806Z,67.80
2023-03-08T00:17:13.923Z,69.00
2023-03-08T00:19:41.203Z,70.90
2023-03-08T00:22:08.681Z,71.80
2023-03-08T00:24:35.837Z,71.60
2023-03-08T00:27:03.250Z,69.90
2023-03-08T00:29:31.171Z,69.50
2023-03-08T00:31:58.282Z,70.70
2023-03-08T00:34:25.416Z,72.50
2023-03-08T00:36:52.640Z,71.60
2023-03-08T00:39:19.842Z,70.80
2023-03-08T00:41:47.001Z,69.90
2023-03-08T00:44:14.105Z,70.90
2023-03-08T00:46:41.267Z,70.70
2023-03-08T00:49:08.958Z,70.30
2023-03-08T00:51:36.068Z,71.20
2023-03-08T00:54:03.181Z,72.40
2023-03-08T00:56:30.325Z,72.80
2023-03-08T00:58:57.371Z,72.50
2023-03-08T01:01:24.582Z,71.60
2023-03-08T01:03:52.517Z,70.10
2023-03-08T01:06:19.604Z,71.40
2023-03-08T01:08:46.924Z,70.30
2023-03-08T01:11:26.127Z,71.50
2023-03-08T01:13:54.351Z,72.30
2023-03-08T01:16:27.968Z,73.80
2023-03-08T01:18:55.555Z,74.60
2023-03-08T01:21:23.013Z,74.90
2023-03-08T01:23:50.980Z,74.50
2023-03-08T01:26:21.094Z,72.90
2023-03-08T01:28:48.568Z,72.90
2023-03-08T01:31:18.150Z,74.10
2023-03-08T01:33:45.800Z,73.20
2023-03-08T01:36:17.277Z,73.60
2023-03-08T01:38:45.509Z,74.00
2023-03-08T01:41:30.699Z,73.90
2023-03-08T01:43:57.987Z,74.10
2023-03-08T01:46:33.612Z,74.40
2023-03-08T01:49:27.279Z,76.70
2023-03-08T01:52:30.033Z,77.00
2023-03-08T01:55:06.033Z,78.10
2023-03-08T01:58:02.306Z,79.70
2023-03-08T02:00:29.520Z,81.00
2023-03-08T02:03:05.031Z,82.70
2023-03-08T02:05:33.736Z,84.90
2023-03-08T02:08:13.157Z,84.50
2023-03-08T02:10:41.417Z,82.90
2023-03-08T02:13:10.069Z,82.10
2023-03-08T02:15:40.769Z,82.10
2023-03-08T02:18:08.187Z,82.70
2023-03-08T02:20:40.478Z,83.90
2023-03-08T02:23:13.362Z,84.40
2023-03-08T02:25:50.116Z,86.10
2023-03-08T02:28:17.702Z,85.70
2023-03-08T02:30:44.824Z,84.90
2023-03-08T02:33:11.892Z,84.10
2023-03-08T02:38:27.286Z,85.30
2023-03-08T02:40:54.389Z,86.00
2023-03-08T02:43:21.494Z,87.00
2023-03-08T02:45:48.945Z,86.80
2023-03-08T02:48:16.369Z,86.50
2023-03-08T02:50:43.816Z,86.50
2023-03-08T02:53:11.110Z,88.00
2023-03-08T02:55:38.309Z,88.90
2023-03-08T02:58:10.746Z,89.00
2023-03-08T03:00:38.578Z,90.10
2023-03-08T03:03:05.958Z,90.40
2023-03-08T03:05:33.105Z,90.00
2023-03-08T03:08:03.311Z,90.20
2023-03-08T03:10:30.726Z,90.60
2023-03-08T03:12:57.868Z,90.20
2023-03-08T03:15:28.965Z,90.20
2023-03-08T03:17:59.073Z,91.10
2023-03-08T03:20:26.252Z,90.40
2023-03-08T03:22:53.402Z,90.00
2023-03-08T03:25:25.857Z,90.30
2023-03-08T03:27:55.300Z,90.40
2023-03-08T03:30:23.304Z,90.60
2023-03-08T03:32:51.084Z,91.40
2023-03-08T03:35:23.931Z,91.90
2023-03-08T03:37:51.227Z,91.60
2023-03-08T03:40:18.674Z,91.40
2023-03-08T03:42:50.070Z,91.80
2023-03-08T03:45:18.500Z,92.00
2023-03-08T03:47:47.340Z,92.20
2023-03-08T03:50:14.833Z,92.00
2023-03-08T03:52:55.920Z,93.10
2023-03-08T03:55:23.201Z,93.90
2023-03-08T03:57:50.883Z,94.80
2023-03-08T04:00:19.090Z,95.50
2023-03-08T04:02:54.089Z,95.50
2023-03-08T04:05:22.171Z,95.50
2023-03-08T04:07:52.452Z,96.30
2023-03-08T04:10:22.664Z,96.60
2023-03-08T04:12:52.327Z,96.90
2023-03-08T04:15:21.208Z,96.20
2023-03-08T04:17:48.413Z,96.60
2023-03-08T04:20:18.908Z,97.00
2023-03-08T04:22:53.592Z,96.70
2023-03-08T04:25:27.089Z,96.80
2023-03-08T04:27:58.886Z,98.10
2023-03-08T04:30:26.388Z,98.70
2023-03-08T04:32:55.033Z,98.80
2023-03-08T04:35:26.263Z,98.60
2023-03-08T04:37:54.732Z,98.60
2023-03-08T04:40:24.617Z,97.30
2023-03-08T04:42:56.955Z,96.20
2023-03-08T04:45:33.036Z,95.80
2023-03-08T04:48:04.380Z,95.90
2023-03-08T04:50:32.937Z,95.80
2023-03-08T04:53:00.071Z,95.20
2023-03-08T04:55:28.486Z,94.60
2023-03-08T04:57:55.622Z,94.90
2023-03-08T05:00:23.710Z,94.70
2023-03-08T05:02:51.418Z,94.90
2023-03-08T05:05:19.483Z,95.10
2023-03-08T05:07:47.154Z,94.10
2023-03-08T05:10:14.319Z,94.60
2023-03-08T05:12:42.098Z,94.00
2023-03-08T05:15:10.335Z,94.00
2023-03-08T05:17:37.626Z,93.50
2023-03-08T05:20:05.701Z,94.00
2023-03-08T05:22:55.086Z,94.50
2023-03-08T05:25:25.250Z,94.20
2023-03-08T05:27:52.406Z,93.60
2023-03-08T05:30:21.984Z,93.90
2023-03-08T05:32:50.280Z,94.10
2023-03-08T05:35:17.486Z,94.40
2023-03-08T05:37:44.821Z,94.80
2023-03-08T05:40:12.973Z,95.10
2023-03-08T05:42:43.439Z,95.10
2023-03-08T05:45:11.895Z,94.70
2023-03-08T05:47:40.462Z,95.40
2023-03-08T05:50:10.288Z,95.30
2023-03-08T05:52:42.589Z,95.00
2023-03-08T05:55:13.511Z,95.00
2023-03-08T05:57:47.926Z,95.00
2023-03-08T06:00:16.498Z,95.00
2023-03-08T06:02:43.666Z,94.90
2023-03-08T06:05:12.348Z,95.00
2023-03-08T06:07:40.856Z,94.90
2023-03-08T06:10:11.541Z,95.10
2023-03-08T06:12:39.245Z,94.80
2023-03-08T06:15:09.771Z,94.70
2023-03-08T06:17:38.327Z,94.60
2023-03-08T06:20:06.389Z,94.90
2023-03-08T06:22:36.114Z,94.80
2023-03-08T06:25:04.141Z,94.60
2023-03-08T06:27:35.038Z,95.00
2023-03-08T06:30:08.741Z,94.80
2023-03-08T06:32:37.790Z,95.10
2023-03-08T06:35:06.892Z,94.90
2023-03-08T06:37:40.092Z,94.80
2023-03-08T06:40:09.326Z,94.70
2023-03-08T06:42:41.588Z,95.00
2023-03-08T06:45:12.724Z,94.90
2023-03-08T06:47:39.814Z,95.00
2023-03-08T06:50:13.106Z,95.30
2023-03-08T06:52:43.539Z,95.00
2023-03-08T06:55:11.753Z,95.30
2023-03-08T06:57:39.176Z,95.50
2023-03-08T07:00:09.715Z,95.20
2023-03-08T07:02:36.828Z,95.10
2023-03-08T07:05:04.144Z,95.50
2023-03-08T07:07:35.727Z,95.50
2023-03-08T07:10:04.009Z,95.50
2023-03-08T07:12:36.739Z,95.60
2023-03-08T07:15:04.234Z,95.40
2023-03-08T07:17:31.685Z,95.30
2023-03-08T07:19:58.817Z,95.50
2023-03-08T07:22:25.855Z,95.50
2023-03-08T07:24:53.032Z,95.50
2023-03-08T07:27:20.099Z,95.60
2023-03-08T07:29:47.258Z,95.70
2023-03-08T07:32:14.394Z,96.10
2023-03-08T07:34:41.573Z,96.00
2023-03-08T07:37:26.601Z,96.30
2023-03-08T07:39:54.015Z,96.00
2023-03-08T07:42:21.084Z,96.00
2023-03-08T07:44:54.504Z,96.50
2023-03-08T07:47:21.902Z,96.50
2023-03-08T07:49:49.012Z,96.40
2023-03-08T07:52:16.114Z,97.00
2023-03-08T07:54:44.090Z,96.80
2023-03-08T07:57:14.333Z,97.60
2023-03-08T07:59:42.455Z,97.30
2023-03-08T08:02:13.756Z,98.10
2023-03-08T08:04:41.632Z,98.20
2023-03-08T08:07:13.005Z,98.50
2023-03-08T08:09:40.264Z,98.50
2023-03-08T08:12:07.732Z,98.20
2023-03-08T08:14:34.985Z,98.00
2023-03-08T08:17:02.137Z,97.80
2023-03-08T08:19:29.760Z,97.90
2023-03-08T08:21:56.817Z,97.50
2023-03-08T08:24:23.940Z,97.10
2023-03-08T08:26:51.037Z,97.10
2023-03-08T08:29:18.118Z,97.60
2023-03-08T08:31:45.242Z,96.90
2023-03-08T08:34:12.498Z,96.30
2023-03-08T08:36:39.634Z,96.60
2023-03-08T08:39:06.795Z,96.60
2023-03-08T08:41:33.982Z,95.90
2023-03-08T08:44:01.247Z,96.70
2023-03-08T08:46:28.513Z,96.10
2023-03-08T08:48:57.792Z,95.90
2023-03-08T08:51:24.904Z,95.90
2023-03-08T08:53:52.847Z,96.30
2023-03-08T08:56:28.652Z,96.40
2023-03-08T08:59:01.729Z,96.50
2023-03-08T09:01:31.840Z,96.30
2023-03-08T09:03:59.603Z,96.30
2023-03-08T09:06:28.129Z,96.70
2023-03-08T09:08:57.546Z,97.40
2023-03-08T09:11:26.330Z,97.60
2023-03-08T09:13:53.983Z,98.10
2023-03-08T09:16:29.560Z,97.90
2023-03-08T09:18:58.213Z,98.10
2023-03-08T09:21:26.708Z,97.60
2023-03-08T09:23:54.385Z,97.50
2023-03-08T09:26:21.604Z,97.70
2023-03-08T09:28:48.702Z,98.40
2023-03-08T09:31:17.651Z,98.40
2023-03-08T09:33:52.349Z,99.10
2023-03-08T09:36:20.155Z,99.70
2023-03-08T09:38:49.000Z,99.90
2023-03-08T09:41:53.039Z,99.90
2023-03-08T09:45:07.559Z,99.90
2023-03-08T09:48:21.263Z,99.90
2023-03-08T09:50:51.741Z,99.90
2023-03-08T09:53:38.765Z,99.90
2023-03-08T09:56:28.524Z,99.90
2023-03-08T09:59:06.114Z,99.90
2023-03-08T10:01:41.975Z,99.90
2023-03-08T10:04:22.191Z,99.90
2023-03-08T10:07:34.092Z,99.90
2023-03-08T10:10:27.163Z,99.90
2023-03-08T10:13:23.559Z,99.90
2023-03-08T10:15:53.499Z,99.90
2023-03-08T10:19:25.149Z,99.90
2023-03-08T10:21:53.516Z,99.90
2023-03-08T10:24:34.064Z,99.90
2023-03-08T10:27:18.920Z,99.90
2023-03-08T10:29:53.831Z,99.90
2023-03-08T10:32:22.754Z,99.90
2023-03-08T10:34:50.253Z,99.90
2023-03-08T10:37:17.459Z,99.90
2023-03-08T10:39:54.875Z,99.90
2023-03-08T10:42:24.225Z,99.90
2023-03-08T10:45:17.054Z,99.90
2023-03-08T10:48:17.240Z,99.90
2023-03-08T10:50:44.395Z,99.90
2023-03-08T10:53:19.211Z,99.90
2023-03-08T10:55:52.748Z,99.90
2023-03-08T10:58:37.785Z,99.90
2023-03-08T11:01:30.986Z,99.90
2023-03-08T11:04:19.100Z,99.90
2023-03-08T11:06:46.778Z,99.90
2023-03-08T11:09:31.900Z,99.90
2023-03-08T11:12:00.516Z,99.90
2023-03-08T11:14:29.924Z,99.90
2023-03-08T11:17:15.986Z,99.90
2023-03-08T11:20:27.884Z,99.90
2023-03-08T11:23:33.193Z,99.90
2023-03-08T11:26:24.391Z,99.90
2023-03-08T11:29:31.123Z,99.90
2023-03-08T11:36:17.078Z,99.90
2023-03-08T11:38:57.510Z,99.90
2023-03-08T11:41:50.121Z,99.90
2023-03-08T11:45:00.099Z,99.90
2023-03-08T11:48:05.971Z,99.90
2023-03-08T11:51:09.623Z,99.90
2023-03-08T12:02:30.370Z,99.90
2023-03-08T12:05:18.268Z,99.90
2023-03-08T12:08:12.019Z,99.90
2023-03-08T12:10:50.030Z,99.90
2023-03-08T12:13:52.515Z,99.90
2023-03-08T12:16:31.474Z,99.90
2023-03-08T12:19:29.091Z,99.90
2023-03-08T12:22:12.849Z,99.90
2023-03-08T12:28:27.920Z,99.90
2023-03-08T12:31:41.541Z,99.90
2023-03-08T12:34:42.420Z,99.90
2023-03-08T12:37:24.280Z,99.90
2023-03-08T12:40:47.202Z,99.90
2023-03-08T12:43:32.193Z,99.90
2023-03-08T12:46:17.442Z,99.90
2023-03-08T12:48:50.013Z,99.90
2023-03-08T12:51:26.449Z,99.90
2023-03-08T12:54:04.542Z,99.90
2023-03-08T12:56:52.920Z,99.90
2023-03-08T12:59:38.505Z,99.90
2023-03-08T13:02:37.865Z,99.90
2023-03-08T13:05:33.493Z,99.90
2023-03-08T13:08:22.890Z,99.90
2023-03-08T13:11:15.133Z,99.90
2023-03-08T13:13:58.086Z,99.90
2023-03-08T13:16:37.704Z,99.90
2023-03-08T13:19:34.390Z,99.90
2023-03-08T13:22:24.039Z,99.90
2023-03-08T13:25:01.500Z,99.90
2023-03-08T13:28:06.445Z,99.90
2023-03-08T13:30:38.996Z,99.90
2023-03-08T13:33:14.858Z,99.90
2023-03-08T13:35:42.114Z,99.90
2023-03-08T13:38:21.514Z,99.90
2023-03-08T13:40:56.464Z,99.90
2023-03-08T13:43:26.043Z,99.90
2023-03-08T13:45:56.621Z,99.90
2023-03-08T13:48:27.373Z,99.90
2023-03-08T13:50:54.545Z,99.90
2023-03-08T13:53:28.409Z,99.90
2023-03-08T13:55:59.054Z,99.90
2023-03-08T13:58:33.638Z,99.90
2023-03-08T14:01:16.175Z,99.90
2023-03-08T14:03:45.369Z,99.90
2023-03-08T14:06:31.279Z,99.90
2023-03-08T14:09:00.827Z,99.90
2023-03-08T14:11:34.222Z,99.90
2023-03-08T14:14:04.730Z,99.90
2023-03-08T14:16:38.319Z,99.90
2023-03-08T14:19:25.880Z,99.90
2023-03-08T14:22:32.231Z,99.90
2023-03-08T14:25:05.858Z,99.90
2023-03-08T14:27:41.152Z,99.90
2023-03-08T14:30:27.082Z,99.90
2023-03-08T14:33:20.238Z,99.90
2023-03-08T14:36:00.426Z,99.90
2023-03-08T14:38:30.857Z,99.90
2023-03-08T14:41:01.195Z,99.60
2023-03-08T14:43:28.636Z,99.40
2023-03-08T14:46:04.948Z,98.80
2023-03-08T14:48:34.547Z,99.20
2023-03-08T14:51:07.104Z,99.30
2023-03-08T14:53:37.553Z,98.80
2023-03-08T14:56:23.294Z,99.20
2023-03-08T14:58:54.270Z,99.90
2023-03-08T15:01:34.261Z,99.90
2023-03-08T15:04:02.556Z,99.90
2023-03-08T15:06:36.354Z,99.90
2023-03-08T15:09:07.414Z,99.90
2023-03-08T15:11:35.262Z,99.90
2023-03-08T15:14:03.188Z,99.90
2023-03-08T15:16:30.677Z,99.90
2023-03-08T15:18:58.098Z,99.90
2023-03-08T15:21:27.492Z,99.90
2023-03-08T15:23:55.556Z,99.90
2023-03-08T15:26:26.803Z,99.90
2023-03-08T15:28:55.073Z,99.90
2023-03-08T15:31:22.426Z,99.90
2023-03-08T15:33:50.414Z,99.90
2023-03-08T15:36:19.467Z,99.90
2023-03-08T15:38:47.010Z,99.90
2023-03-08T15:41:15.656Z,99.90
2023-03-08T15:43:43.744Z,99.90
2023-03-08T15:46:13.892Z,99.90
2023-03-08T15:48:42.396Z,99.90
2023-03-08T15:51:18.488Z,99.90
2023-03-08T15:53:46.321Z,99.90
2023-03-08T15:56:13.480Z,99.90
2023-03-08T15:58:43.375Z,99.90
2023-03-08T16:01:12.107Z,99.90
2023-03-08T16:03:39.453Z,99.90
2023-03-08T16:06:10.856Z,99.90
2023-03-08T16:08:38.738Z,99.90
2023-03-08T16:11:10.434Z,99.90
2023-03-08T16:13:37.660Z,99.90
2023-03-08T16:16:05.609Z,99.90
2023-03-08T16:18:34.288Z,99.90
2023-03-08T16:21:01.477Z,99.90
2023-03-08T16:23:28.600Z,99.90
2023-03-08T16:26:14.559Z,99.90
2023-03-08T16:28:44.749Z,99.90
2023-03-08T16:31:12.465Z,99.90
2023-03-08T16:33:39.972Z,99.90
2023-03-08T16:36:07.631Z,99.90
2023-03-08T16:38:35.077Z,99.90
2023-03-08T16:41:12.833Z,99.90
2023-03-08T16:43:47.316Z,99.90
2023-03-08T16:46:18.629Z,99.90
2023-03-08T16:48:49.426Z,99.90
2023-03-08T16:51:19.039Z,99.90
2023-03-08T16:53:46.298Z,99.90
2023-03-08T16:56:21.749Z,99.90
2023-03-08T16:58:48.888Z,99.90
2023-03-08T17:01:17.795Z,99.90
2023-03-08T17:03:45.027Z,99.90
2023-03-08T17:06:13.983Z,99.90
2023-03-08T17:08:41.492Z,99.90
2023-03-08T17:11:21.486Z,99.90
2023-03-08T17:13:53.630Z,99.90
2023-03-08T17:16:23.759Z,99.90
2023-03-08T17:18:51.717Z,99.90
2023-03-08T17:21:20.240Z,99.90
2023-03-08T17:23:48.121Z,99.90
2023-03-08T17:26:16.863Z,99.90
2023-03-08T17:28:44.379Z,99.90
2023-03-08T17:31:14.515Z,99.90
2023-03-08T17:33:42.808Z,99.90
2023-03-08T17:36:11.097Z,99.90
2023-03-08T17:38:38.216Z,99.90
2023-03-08T17:41:11.304Z,99.90
2023-03-08T17:43:41.061Z,99.90
2023-03-08T17:46:23.665Z,99.90
2023-03-08T17:48:52.924Z,99.90
2023-03-08T17:51:29.631Z,99.90
2023-03-08T17:53:58.159Z,99.90
2023-03-08T17:56:29.657Z,99.90
2023-03-08T17:58:58.292Z,99.90
2023-03-08T18:01:27.707Z,99.90
2023-03-08T18:03:55.630Z,99.90
2023-03-08T18:06:33.269Z,99.90
2023-03-08T18:09:05.929Z,99.90
2023-03-08T18:11:37.719Z,99.90
2023-03-08T18:14:11.111Z,99.90
2023-03-08T18:16:39.731Z,99.90
2023-03-08T18:19:07.318Z,99.90
2023-03-08T18:21:35.592Z,99.90
2023-03-08T18:24:02.657Z,99.90
2023-03-08T18:26:29.811Z,99.90
2023-03-08T18:28:56.902Z,99.90
2023-03-08T18:31:26.324Z,99.90
2023-03-08T18:33:55.030Z,99.90
2023-03-08T18:36:23.472Z,99.90
2023-03-08T18:38:50.765Z,99.90
2023-03-08T18:41:28.057Z,99.90
2023-03-08T18:43:56.842Z,99.90
2023-03-08T18:46:29.066Z,99.90
2023-03-08T18:49:06.945Z,99.90
2023-03-08T18:51:36.164Z,99.90
2023-03-08T18:54:03.590Z,99.90
2023-03-08T18:56:31.582Z,99.90
2023-03-08T18:59:00.656Z,99.90
2023-03-08T19:01:30.471Z,99.90
2023-03-08T19:04:04.153Z,99.90
2023-03-08T19:06:31.277Z,99.90
2023-03-08T19:08:58.327Z,99.90
2023-03-08T19:11:28.367Z,99.90
2023-03-08T19:13:55.744Z,99.90
2023-03-08T19:16:28.618Z,99.90
2023-03-08T19:18:59.214Z,99.90
2023-03-08T19:21:29.738Z,99.90
2023-03-08T19:23:57.681Z,99.90
2023-03-08T19:26:41.149Z,99.90
2023-03-08T19:29:14.951Z,99.90
2023-03-08T19:31:45.255Z,99.90
2023-03-08T19:34:13.751Z,99.90
2023-03-08T19:36:42.564Z,99.90
2023-03-08T19:39:14.783Z,99.90
2023-03-08T19:41:42.783Z,99.90
2023-03-08T19:44:10.521Z,99.90
2023-03-08T19:46:38.747Z,99.90
2023-03-08T19:49:07.777Z,99.90
2023-03-08T19:51:35.919Z,99.90
2023-03-08T19:54:03.349Z,99.90
2023-03-08T19:56:30.529Z,99.90
2023-03-08T19:58:57.812Z,99.90
2023-03-08T20:01:25.385Z,99.90
2023-03-08T20:03:53.267Z,99.90
2023-03-08T20:06:32.953Z,99.90
2023-03-08T20:09:01.982Z,99.90
2023-03-08T20:11:29.612Z,99.90
2023-03-08T20:13:56.884Z,99.90
2023-03-08T20:16:25.365Z,99.90
2023-03-08T20:18:55.460Z,99.90
2023-03-08T20:21:24.998Z,99.90
2023-03-08T20:23:55.476Z,99.90
2023-03-08T20:26:28.138Z,99.90
2023-03-08T20:28:56.750Z,99.90
2023-03-08T20:31:24.776Z,99.90
2023-03-08T20:33:52.296Z,99.90
2023-03-08T20:36:19.799Z,99.90
2023-03-08T20:38:47.451Z,99.90
2023-03-08T20:41:17.363Z,99.90
2023-03-08T20:43:45.989Z,99.90
2023-03-08T20:46:16.178Z,99.90
2023-03-08T20:48:44.968Z,99.90
2023-03-08T20:51:14.757Z,99.90
2023-03-08T20:53:42.228Z,99.90
2023-03-08T20:56:14.235Z,99.90
2023-03-08T20:58:42.000Z,99.90
2023-03-08T21:01:18.002Z,99.90
2023-03-08T21:03:46.015Z,99.90
2023-03-08T21:06:21.421Z,99.90
2023-03-08T21:08:49.832Z,99.90
2023-03-08T21:11:17.602Z,99.90
2023-03-08T21:13:47.322Z,99.90
2023-03-08T21:16:15.973Z,99.90
2023-03-08T21:18:45.939Z,99.90
2023-03-08T21:21:21.830Z,99.90
2023-03-08T21:23:52.631Z,99.90
2023-03-08T21:26:21.056Z,99.90
2023-03-08T21:28:48.469Z,99.90
2023-03-08T21:31:15.958Z,99.90
2023-03-08T21:33:43.237Z,99.90
2023-03-08T21:36:11.395Z,99.90
2023-03-08T21:38:38.872Z,99.90
2023-03-08T21:41:06.442Z,99.90
2023-03-08T21:43:33.862Z,99.90
2023-03-08T21:46:03.999Z,99.90
2023-03-08T21:48:31.195Z,99.90
2023-03-08T21:50:58.285Z,99.90
2023-03-08T21:53:25.475Z,99.90
2023-03-08T21:55:52.573Z,99.90
2023-03-08T21:58:19.683Z,99.90
2023-03-08T22:00:46.766Z,99.90
2023-03-08T22:03:14.137Z,99.90
2023-03-08T22:05:41.250Z,99.90
2023-03-08T22:08:08.633Z,99.90
2023-03-08T22:10:35.671Z,99.90
2023-03-08T22:13:02.784Z,99.90
2023-03-08T22:15:29.877Z,99.90
2023-03-08T22:17:57.234Z,99.90
2023-03-08T22:20:24.459Z,99.90
2023-03-08T22:22:51.589Z,99.90
2023-03-08T22:25:18.982Z,99.90
2023-03-08T22:27:46.024Z,99.90
2023-03-08T22:30:13.651Z,99.90
2023-03-08T22:32:42.108Z,99.90
2023-03-08T22:35:11.012Z,99.90
2023-03-08T22:37:38.859Z,99.90
2023-03-08T22:40:10.758Z,99.90
2023-03-08T22:42:38.032Z,99.90
2023-03-08T22:45:05.794Z,99.90
2023-03-08T22:47:32.938Z,99.90
2023-03-08T22:50:00.045Z,99.90
2023-03-08T22:52:27.416Z,99.90
2023-03-08T22:54:54.516Z,99.90
2023-03-08T22:57:22.098Z,99.90
2023-03-08T22:59:49.564Z,99.90
2023-03-08T23:02:16.675Z,99.90
2023-03-08T23:04:43.759Z,99.90
2023-03-08T23:07:10.878Z,99.90
2023-03-08T23:09:37.978Z,99.90
2023-03-08T23:12:06.215Z,99.90
2023-03-08T23:14:34.681Z,99.90
2023-03-08T23:17:01.880Z,99.90
2023-03-08T23:19:29.045Z,99.90
2023-03-08T23:21:56.486Z,99.90
2023-03-08T23:24:23.635Z,99.90
2023-03-08T23:26:50.752Z,99.90
2023-03-08T23:29:17.821Z,99.90
2023-03-08T23:31:46.089Z,99.90
2023-03-08T23:34:13.362Z,99.90
2023-03-08T23:36:40.575Z,99.90
2023-03-08T23:39:08.341Z,99.90
2023-03-08T23:41:35.494Z,99.90
2023-03-08T23:44:04.007Z,99.90
2023-03-08T23:46:32.049Z,99.90
2023-03-08T23:49:01.104Z,99.90
2023-03-08T23:51:31.595Z,99.90
2023-03-08T23:54:00.849Z,99.90
2023-03-08T23:56:37.641Z,99.90
2023-03-08T23:59:18.466Z,99.90
